Terminal Aerodrome Forecast
Issued by NWS

Home | Current Version | Previous Version | Text Only | Print | Product List | Glossary On
Versions: 1 2 3 4 5 6 7 8 9 10 11 12 13 14
000
FTUS44 KLIX 172340
TAFGPT
TAF
KGPT 172340Z 1800/1824 12004KT 2SM BR VCSH BKN005
     FM180300 VRB03KT 1/4SM FG BKN002
     FM181600 06004KT 3SM SHRA BR BKN005 OVC035
     FM181800 08004KT P6SM BKN006 OVC035 PROB30 1818/1820 2SM -SHRA
     FM182000 14004KT P6SM BKN008 OVC040 PROB30 1820/1822 4SM -SHRA
      OVC003
     FM182200 15004KT P6SM BKN008 BKN045 PROB30 1822/1824 4SM -SHRA=

USA.gov is the U.S. government's official web portal to all federal, state and local government web resources and services.